sensor_id;sensor_type;location;lat;lon;timestamp;P1;durP1;ratioP1;P2;durP2;ratioP2
55025;SDS011;40925;45.666;18.994;2023-03-31T07:29:40;8.32;;;3.20;;
55025;SDS011;40925;45.666;18.994;2023-03-31T07:33:26;8.18;;;3.33;;
55025;SDS011;40925;45.666;18.994;2023-03-31T08:11:16;9.80;;;3.45;;
55025;SDS011;40925;45.666;18.994;2023-03-31T08:14:42;9.68;;;4.28;;
55025;SDS011;40925;45.666;18.994;2023-03-31T08:17:58;10.60;;;5.03;;
55025;SDS011;40925;45.666;18.994;2023-03-31T08:20:29;9.73;;;4.10;;
55025;SDS011;40925;45.666;18.994;2023-03-31T08:23:40;7.60;;;2.75;;
55025;SDS011;40925;45.666;18.994;2023-03-31T08:26:39;6.80;;;2.65;;
55025;SDS011;40925;45.666;18.994;2023-03-31T08:29:29;9.88;;;2.70;;
55025;SDS011;40925;45.666;18.994;2023-03-31T08:31:59;5.65;;;2.80;;
55025;SDS011;40925;45.666;18.994;2023-03-31T08:34:56;7.38;;;2.60;;
55025;SDS011;40925;45.666;18.994;2023-03-31T08:52:34;6.10;;;3.13;;
55025;SDS011;40925;45.666;18.994;2023-03-31T08:55:54;6.82;;;3.75;;
55025;SDS011;40925;45.666;18.994;2023-03-31T08:59:02;5.25;;;2.90;;
55025;SDS011;40925;45.666;18.994;2023-03-31T09:08:18;8.48;;;4.55;;
55025;SDS011;40925;45.666;18.994;2023-03-31T09:16:32;7.38;;;3.42;;
55025;SDS011;40925;45.666;18.994;2023-03-31T09:22:49;6.78;;;3.00;;
55025;SDS011;40925;45.666;18.994;2023-03-31T09:25:30;6.50;;;2.40;;
55025;SDS011;40925;45.666;18.994;2023-03-31T09:28:22;4.95;;;2.30;;
55025;SDS011;40925;45.666;18.994;2023-03-31T09:31:20;6.07;;;2.60;;
55025;SDS011;40925;45.666;18.994;2023-03-31T09:33:59;6.60;;;2.25;;
55025;SDS011;40925;45.666;18.994;2023-03-31T09:36:35;6.15;;;2.70;;
55025;SDS011;40925;45.666;18.994;2023-03-31T09:39:05;5.78;;;2.20;;
55025;SDS011;40925;45.666;18.994;2023-03-31T09:42:08;6.38;;;2.85;;
55025;SDS011;40925;45.666;18.994;2023-03-31T09:44:37;10.23;;;4.38;;
55025;SDS011;40925;45.666;18.994;2023-03-31T09:52:26;8.98;;;2.45;;
55025;SDS011;40925;45.666;18.994;2023-03-31T09:54:59;5.35;;;2.25;;
55025;SDS011;40925;45.666;18.994;2023-03-31T10:03:00;10.45;;;6.03;;
55025;SDS011;40925;45.666;18.994;2023-03-31T10:11:18;7.85;;;2.65;;
55025;SDS011;40925;45.666;18.994;2023-03-31T10:14:12;8.63;;;2.50;;
55025;SDS011;40925;45.666;18.994;2023-03-31T10:16:50;6.57;;;2.50;;
55025;SDS011;40925;45.666;18.994;2023-03-31T10:19:47;6.28;;;2.10;;
55025;SDS011;40925;45.666;18.994;2023-03-31T10:22:31;8.77;;;2.13;;
55025;SDS011;40925;45.666;18.994;2023-03-31T10:27:56;5.95;;;2.45;;
55025;SDS011;40925;45.666;18.994;2023-03-31T10:30:32;5.57;;;2.58;;
55025;SDS011;40925;45.666;18.994;2023-03-31T10:33:10;9.38;;;3.17;;
55025;SDS011;40925;45.666;18.994;2023-03-31T10:35:40;8.95;;;3.25;;
55025;SDS011;40925;45.666;18.994;2023-03-31T10:38:11;7.43;;;3.42;;
55025;SDS011;40925;45.666;18.994;2023-03-31T10:40:50;6.63;;;3.25;;
55025;SDS011;40925;45.666;18.994;2023-03-31T10:49:28;4.30;;;1.98;;
55025;SDS011;40925;45.666;18.994;2023-03-31T10:51:56;7.60;;;2.80;;
55025;SDS011;40925;45.666;18.994;2023-03-31T10:54:24;5.70;;;2.25;;
55025;SDS011;40925;45.666;18.994;2023-03-31T10:56:57;7.80;;;3.17;;
55025;SDS011;40925;45.666;18.994;2023-03-31T11:04:55;6.05;;;2.20;;
55025;SDS011;40925;45.666;18.994;2023-03-31T11:14:39;8.50;;;2.67;;
55025;SDS011;40925;45.666;18.994;2023-03-31T11:18:05;6.78;;;2.38;;
55025;SDS011;40925;45.666;18.994;2023-03-31T11:24:22;7.85;;;3.03;;
55025;SDS011;40925;45.666;18.994;2023-03-31T11:27:23;4.22;;;2.33;;
55025;SDS011;40925;45.666;18.994;2023-03-31T11:30:08;12.50;;;3.55;;
55025;SDS011;40925;45.666;18.994;2023-03-31T11:38:37;7.10;;;3.00;;
55025;SDS011;40925;45.666;18.994;2023-03-31T11:43:53;7.00;;;3.15;;
55025;SDS011;40925;45.666;18.994;2023-03-31T11:46:47;5.65;;;2.63;;
55025;SDS011;40925;45.666;18.994;2023-03-31T11:49:23;5.18;;;2.40;;
55025;SDS011;40925;45.666;18.994;2023-03-31T11:52:19;9.02;;;3.08;;
55025;SDS011;40925;45.666;18.994;2023-03-31T11:55:02;7.25;;;1.90;;
55025;SDS011;40925;45.666;18.994;2023-03-31T12:00:29;5.38;;;2.20;;
55025;SDS011;40925;45.666;18.994;2023-03-31T12:06:41;3.75;;;1.98;;
55025;SDS011;40925;45.666;18.994;2023-03-31T12:12:14;6.28;;;2.45;;
55025;SDS011;40925;45.666;18.994;2023-03-31T12:17:56;6.20;;;2.13;;
55025;SDS011;40925;45.666;18.994;2023-03-31T12:20:34;4.18;;;1.98;;
55025;SDS011;40925;45.666;18.994;2023-03-31T12:23:11;4.55;;;2.10;;
55025;SDS011;40925;45.666;18.994;2023-03-31T12:25:50;4.03;;;2.00;;
55025;SDS011;40925;45.666;18.994;2023-03-31T12:28:20;4.85;;;1.88;;
55025;SDS011;40925;45.666;18.994;2023-03-31T12:30:48;4.28;;;1.80;;
55025;SDS011;40925;45.666;18.994;2023-03-31T12:33:19;3.58;;;1.60;;
55025;SDS011;40925;45.666;18.994;2023-03-31T12:44:07;4.82;;;2.45;;
55025;SDS011;40925;45.666;18.994;2023-03-31T12:55:39;8.65;;;3.40;;
55025;SDS011;40925;45.666;18.994;2023-03-31T13:01:14;4.82;;;1.95;;
55025;SDS011;40925;45.666;18.994;2023-03-31T13:03:49;4.80;;;1.80;;
55025;SDS011;40925;45.666;18.994;2023-03-31T13:06:57;3.72;;;2.15;;
55025;SDS011;40925;45.666;18.994;2023-03-31T13:12:55;6.30;;;2.50;;
55025;SDS011;40925;45.666;18.994;2023-03-31T13:15:30;6.57;;;3.85;;
55025;SDS011;40925;45.666;18.994;2023-03-31T13:18:14;6.57;;;2.67;;
55025;SDS011;40925;45.666;18.994;2023-03-31T13:20:46;5.18;;;2.35;;
55025;SDS011;40925;45.666;18.994;2023-03-31T13:23:23;4.32;;;2.20;;
55025;SDS011;40925;45.666;18.994;2023-03-31T13:25:57;3.72;;;1.92;;
55025;SDS011;40925;45.666;18.994;2023-03-31T13:28:26;5.30;;;2.53;;
55025;SDS011;40925;45.666;18.994;2023-03-31T13:31:09;7.25;;;3.22;;
55025;SDS011;40925;45.666;18.994;2023-03-31T13:50:52;6.57;;;2.45;;
55025;SDS011;40925;45.666;18.994;2023-03-31T13:53:36;6.95;;;3.17;;
55025;SDS011;40925;45.666;18.994;2023-03-31T13:56:32;3.90;;;2.08;;
55025;SDS011;40925;45.666;18.994;2023-03-31T14:05:29;5.55;;;2.80;;
55025;SDS011;40925;45.666;18.994;2023-03-31T14:08:01;5.32;;;2.33;;
55025;SDS011;40925;45.666;18.994;2023-03-31T14:10:38;4.28;;;1.95;;
55025;SDS011;40925;45.666;18.994;2023-03-31T14:13:10;8.75;;;3.92;;
55025;SDS011;40925;45.666;18.994;2023-03-31T14:15:53;6.45;;;3.75;;
55025;SDS011;40925;45.666;18.994;2023-03-31T14:18:31;5.93;;;2.80;;
55025;SDS011;40925;45.666;18.994;2023-03-31T14:37:54;4.85;;;2.45;;
55025;SDS011;40925;45.666;18.994;2023-03-31T14:40:21;11.70;;;5.60;;
55025;SDS011;40925;45.666;18.994;2023-03-31T14:42:48;10.77;;;5.78;;
55025;SDS011;40925;45.666;18.994;2023-03-31T14:45:15;12.57;;;6.57;;
55025;SDS011;40925;45.666;18.994;2023-03-31T14:48:02;10.63;;;6.68;;
55025;SDS011;40925;45.666;18.994;2023-03-31T14:50:41;6.30;;;3.60;;
55025;SDS011;40925;45.666;18.994;2023-03-31T14:53:15;10.52;;;4.18;;
55025;SDS011;40925;45.666;18.994;2023-03-31T14:55:47;9.40;;;3.75;;
55025;SDS011;40925;45.666;18.994;2023-03-31T14:58:23;27.55;;;16.67;;
55025;SDS011;40925;45.666;18.994;2023-03-31T15:00:52;12.65;;;6.55;;
55025;SDS011;40925;45.666;18.994;2023-03-31T15:06:25;15.13;;;8.20;;
55025;SDS011;40925;45.666;18.994;2023-03-31T15:08:53;28.13;;;14.27;;
55025;SDS011;40925;45.666;18.994;2023-03-31T15:11:23;13.68;;;7.85;;
55025;SDS011;40925;45.666;18.994;2023-03-31T15:13:54;8.05;;;4.95;;
55025;SDS011;40925;45.666;18.994;2023-03-31T15:18:59;31.05;;;15.80;;
55025;SDS011;40925;45.666;18.994;2023-03-31T15:21:33;10.52;;;4.93;;
55025;SDS011;40925;45.666;18.994;2023-03-31T15:24:02;14.52;;;7.97;;
55025;SDS011;40925;45.666;18.994;2023-03-31T15:26:30;12.32;;;7.47;;
55025;SDS011;40925;45.666;18.994;2023-03-31T15:29:39;6.47;;;3.05;;
55025;SDS011;40925;45.666;18.994;2023-03-31T15:32:11;4.45;;;2.60;;
55025;SDS011;40925;45.666;18.994;2023-03-31T15:34:40;6.97;;;3.70;;
55025;SDS011;40925;45.666;18.994;2023-03-31T15:37:07;9.57;;;5.05;;
55025;SDS011;40925;45.666;18.994;2023-03-31T15:39:34;8.13;;;3.95;;
55025;SDS011;40925;45.666;18.994;2023-03-31T15:42:01;9.70;;;5.18;;
55025;SDS011;40925;45.666;18.994;2023-03-31T15:49:58;13.07;;;6.65;;
55025;SDS011;40925;45.666;18.994;2023-03-31T15:52:34;10.25;;;6.30;;
55025;SDS011;40925;45.666;18.994;2023-03-31T15:57:55;4.43;;;2.80;;
55025;SDS011;40925;45.666;18.994;2023-03-31T16:03:11;6.78;;;3.10;;
55025;SDS011;40925;45.666;18.994;2023-03-31T16:08:15;12.07;;;4.50;;
55025;SDS011;40925;45.666;18.994;2023-03-31T16:11:02;10.88;;;5.70;;
55025;SDS011;40925;45.666;18.994;2023-03-31T16:13:38;7.63;;;4.57;;
55025;SDS011;40925;45.666;18.994;2023-03-31T16:16:07;7.70;;;4.00;;
55025;SDS011;40925;45.666;18.994;2023-03-31T16:18:36;14.23;;;4.82;;
55025;SDS011;40925;45.666;18.994;2023-03-31T16:21:05;10.05;;;5.70;;
55025;SDS011;40925;45.666;18.994;2023-03-31T16:23:34;18.75;;;10.13;;
55025;SDS011;40925;45.666;18.994;2023-03-31T16:26:05;9.57;;;5.43;;
55025;SDS011;40925;45.666;18.994;2023-03-31T16:28:34;10.20;;;4.90;;
55025;SDS011;40925;45.666;18.994;2023-03-31T16:31:02;8.75;;;3.60;;
55025;SDS011;40925;45.666;18.994;2023-03-31T16:33:29;7.88;;;3.20;;
55025;SDS011;40925;45.666;18.994;2023-03-31T16:35:56;6.35;;;3.30;;
55025;SDS011;40925;45.666;18.994;2023-03-31T16:38:24;7.55;;;4.03;;
55025;SDS011;40925;45.666;18.994;2023-03-31T16:40:52;8.65;;;4.63;;
55025;SDS011;40925;45.666;18.994;2023-03-31T16:43:25;8.30;;;4.07;;
55025;SDS011;40925;45.666;18.994;2023-03-31T16:45:53;7.10;;;3.05;;
55025;SDS011;40925;45.666;18.994;2023-03-31T16:48:21;6.40;;;3.33;;
55025;SDS011;40925;45.666;18.994;2023-03-31T16:50:49;8.93;;;3.65;;
55025;SDS011;40925;45.666;18.994;2023-03-31T16:53:20;8.02;;;3.80;;
55025;SDS011;40925;45.666;18.994;2023-03-31T16:55:47;8.90;;;4.20;;
55025;SDS011;40925;45.666;18.994;2023-03-31T16:58:14;6.35;;;3.15;;
55025;SDS011;40925;45.666;18.994;2023-03-31T17:00:40;7.65;;;4.15;;
55025;SDS011;40925;45.666;18.994;2023-03-31T17:03:07;9.57;;;3.33;;
55025;SDS011;40925;45.666;18.994;2023-03-31T17:05:39;12.77;;;4.35;;
55025;SDS011;40925;45.666;18.994;2023-03-31T17:08:06;10.07;;;3.97;;
55025;SDS011;40925;45.666;18.994;2023-03-31T17:10:36;8.73;;;4.28;;
55025;SDS011;40925;45.666;18.994;2023-03-31T17:13:03;11.40;;;4.38;;
55025;SDS011;40925;45.666;18.994;2023-03-31T17:15:30;44.65;;;27.70;;
55025;SDS011;40925;45.666;18.994;2023-03-31T17:17:57;24.10;;;18.10;;
55025;SDS011;40925;45.666;18.994;2023-03-31T17:20:24;10.95;;;4.28;;
55025;SDS011;40925;45.666;18.994;2023-03-31T17:22:51;22.50;;;10.30;;
55025;SDS011;40925;45.666;18.994;2023-03-31T17:25:19;20.85;;;10.68;;
55025;SDS011;40925;45.666;18.994;2023-03-31T17:27:49;12.05;;;8.63;;
55025;SDS011;40925;45.666;18.994;2023-03-31T17:30:16;9.90;;;5.95;;
55025;SDS011;40925;45.666;18.994;2023-03-31T17:32:46;25.02;;;14.00;;
55025;SDS011;40925;45.666;18.994;2023-03-31T17:35:12;15.10;;;6.40;;
55025;SDS011;40925;45.666;18.994;2023-03-31T17:37:44;13.68;;;6.30;;
55025;SDS011;40925;45.666;18.994;2023-03-31T17:40:11;12.63;;;5.28;;
55025;SDS011;40925;45.666;18.994;2023-03-31T17:43:16;21.95;;;12.43;;
55025;SDS011;40925;45.666;18.994;2023-03-31T17:45:41;27.05;;;14.57;;
55025;SDS011;40925;45.666;18.994;2023-03-31T17:48:07;21.20;;;10.63;;
55025;SDS011;40925;45.666;18.994;2023-03-31T17:50:39;16.85;;;8.00;;
55025;SDS011;40925;45.666;18.994;2023-03-31T17:53:06;26.70;;;12.75;;
55025;SDS011;40925;45.666;18.994;2023-03-31T17:55:34;12.95;;;6.95;;
55025;SDS011;40925;45.666;18.994;2023-03-31T17:58:05;18.00;;;8.50;;
55025;SDS011;40925;45.666;18.994;2023-03-31T18:00:38;21.73;;;11.68;;
55025;SDS011;40925;45.666;18.994;2023-03-31T18:03:09;32.78;;;16.42;;
55025;SDS011;40925;45.666;18.994;2023-03-31T18:05:35;29.95;;;12.95;;
55025;SDS011;40925;45.666;18.994;2023-03-31T18:08:06;19.67;;;9.73;;
55025;SDS011;40925;45.666;18.994;2023-03-31T18:10:33;38.17;;;15.90;;
55025;SDS011;40925;45.666;18.994;2023-03-31T18:12:59;41.50;;;18.23;;
55025;SDS011;40925;45.666;18.994;2023-03-31T18:15:26;30.52;;;14.40;;
55025;SDS011;40925;45.666;18.994;2023-03-31T18:17:57;21.38;;;11.23;;
55025;SDS011;40925;45.666;18.994;2023-03-31T18:20:27;31.85;;;16.60;;
55025;SDS011;40925;45.666;18.994;2023-03-31T18:22:56;54.95;;;26.52;;
55025;SDS011;40925;45.666;18.994;2023-03-31T18:25:32;26.08;;;12.23;;
55025;SDS011;40925;45.666;18.994;2023-03-31T18:28:03;51.55;;;21.23;;
55025;SDS011;40925;45.666;18.994;2023-03-31T18:30:32;39.42;;;16.88;;
55025;SDS011;40925;45.666;18.994;2023-03-31T18:33:20;30.85;;;15.13;;
55025;SDS011;40925;45.666;18.994;2023-03-31T18:36:01;37.38;;;17.85;;
55025;SDS011;40925;45.666;18.994;2023-03-31T18:38:27;41.83;;;21.42;;
55025;SDS011;40925;45.666;18.994;2023-03-31T18:40:54;30.48;;;14.85;;
55025;SDS011;40925;45.666;18.994;2023-03-31T18:43:23;35.22;;;16.65;;
55025;SDS011;40925;45.666;18.994;2023-03-31T18:45:51;14.70;;;7.10;;
55025;SDS011;40925;45.666;18.994;2023-03-31T18:51:29;18.88;;;7.78;;
55025;SDS011;40925;45.666;18.994;2023-03-31T18:53:55;20.50;;;11.18;;
55025;SDS011;40925;45.666;18.994;2023-03-31T18:56:22;18.75;;;9.68;;
55025;SDS011;40925;45.666;18.994;2023-03-31T18:58:50;17.67;;;10.27;;
55025;SDS011;40925;45.666;18.994;2023-03-31T19:01:16;21.05;;;11.20;;
55025;SDS011;40925;45.666;18.994;2023-03-31T19:03:45;19.55;;;10.75;;
55025;SDS011;40925;45.666;18.994;2023-03-31T19:06:20;20.10;;;10.73;;
55025;SDS011;40925;45.666;18.994;2023-03-31T19:08:49;33.92;;;14.32;;
55025;SDS011;40925;45.666;18.994;2023-03-31T19:11:17;33.08;;;14.27;;
55025;SDS011;40925;45.666;18.994;2023-03-31T19:13:43;15.82;;;7.65;;
55025;SDS011;40925;45.666;18.994;2023-03-31T19:16:11;12.60;;;7.38;;
55025;SDS011;40925;45.666;18.994;2023-03-31T19:18:39;19.70;;;8.48;;
55025;SDS011;40925;45.666;18.994;2023-03-31T19:21:05;19.55;;;10.07;;
55025;SDS011;40925;45.666;18.994;2023-03-31T19:23:32;23.88;;;11.90;;
55025;SDS011;40925;45.666;18.994;2023-03-31T19:25:58;21.35;;;11.73;;
55025;SDS011;40925;45.666;18.994;2023-03-31T19:47:25;21.55;;;11.88;;
55025;SDS011;40925;45.666;18.994;2023-03-31T19:53:13;16.02;;;7.93;;
55025;SDS011;40925;45.666;18.994;2023-03-31T19:55:58;13.65;;;7.70;;
55025;SDS011;40925;45.666;18.994;2023-03-31T19:58:54;11.00;;;4.82;;
55025;SDS011;40925;45.666;18.994;2023-03-31T20:01:32;9.65;;;5.47;;
55025;SDS011;40925;45.666;18.994;2023-03-31T20:04:01;11.05;;;5.82;;
55025;SDS011;40925;45.666;18.994;2023-03-31T20:06:56;16.85;;;7.90;;
55025;SDS011;40925;45.666;18.994;2023-03-31T20:09:25;13.82;;;7.32;;
55025;SDS011;40925;45.666;18.994;2023-03-31T20:11:54;17.75;;;10.18;;
55025;SDS011;40925;45.666;18.994;2023-03-31T20:14:22;17.80;;;10.15;;
55025;SDS011;40925;45.666;18.994;2023-03-31T20:16:50;22.00;;;11.05;;
55025;SDS011;40925;45.666;18.994;2023-03-31T20:22:26;19.67;;;8.60;;
55025;SDS011;40925;45.666;18.994;2023-03-31T20:24:52;20.23;;;9.13;;
55025;SDS011;40925;45.666;18.994;2023-03-31T20:27:19;15.55;;;7.47;;
55025;SDS011;40925;45.666;18.994;2023-03-31T20:29:50;15.88;;;7.78;;
55025;SDS011;40925;45.666;18.994;2023-03-31T20:32:20;15.90;;;7.82;;
55025;SDS011;40925;45.666;18.994;2023-03-31T20:37:51;47.25;;;22.02;;
55025;SDS011;40925;45.666;18.994;2023-03-31T20:40:19;83.05;;;33.05;;
55025;SDS011;40925;45.666;18.994;2023-03-31T20:42:51;48.03;;;19.88;;
55025;SDS011;40925;45.666;18.994;2023-03-31T20:45:28;23.05;;;10.20;;
55025;SDS011;40925;45.666;18.994;2023-03-31T20:47:55;29.63;;;11.90;;
55025;SDS011;40925;45.666;18.994;2023-03-31T20:56:14;19.50;;;11.18;;
55025;SDS011;40925;45.666;18.994;2023-03-31T20:58:43;19.95;;;11.40;;
55025;SDS011;40925;45.666;18.994;2023-03-31T21:01:12;22.08;;;9.68;;
55025;SDS011;40925;45.666;18.994;2023-03-31T21:06:59;33.13;;;12.60;;
55025;SDS011;40925;45.666;18.994;2023-03-31T21:09:27;30.13;;;11.45;;
55025;SDS011;40925;45.666;18.994;2023-03-31T21:11:56;17.52;;;7.70;;
55025;SDS011;40925;45.666;18.994;2023-03-31T21:14:24;18.98;;;7.70;;
55025;SDS011;40925;45.666;18.994;2023-03-31T21:16:54;18.90;;;10.90;;
55025;SDS011;40925;45.666;18.994;2023-03-31T21:19:27;16.30;;;8.98;;
55025;SDS011;40925;45.666;18.994;2023-03-31T21:21:53;18.05;;;9.05;;
55025;SDS011;40925;45.666;18.994;2023-03-31T21:24:21;23.40;;;11.50;;
55025;SDS011;40925;45.666;18.994;2023-03-31T21:26:48;26.42;;;11.00;;
55025;SDS011;40925;45.666;18.994;2023-03-31T21:29:15;22.75;;;9.82;;
55025;SDS011;40925;45.666;18.994;2023-03-31T21:31:44;16.38;;;6.65;;
55025;SDS011;40925;45.666;18.994;2023-03-31T21:37:16;15.63;;;6.18;;
55025;SDS011;40925;45.666;18.994;2023-03-31T21:39:45;19.80;;;8.82;;
55025;SDS011;40925;45.666;18.994;2023-03-31T21:42:12;23.42;;;10.95;;
55025;SDS011;40925;45.666;18.994;2023-03-31T21:44:39;27.02;;;13.68;;
55025;SDS011;40925;45.666;18.994;2023-03-31T21:47:06;17.52;;;8.73;;
55025;SDS011;40925;45.666;18.994;2023-03-31T21:52:20;27.25;;;14.40;;
55025;SDS011;40925;45.666;18.994;2023-03-31T21:54:48;32.25;;;16.25;;
55025;SDS011;40925;45.666;18.994;2023-03-31T21:57:18;24.85;;;12.35;;
55025;SDS011;40925;45.666;18.994;2023-03-31T21:59:46;25.10;;;9.93;;
55025;SDS011;40925;45.666;18.994;2023-03-31T22:02:12;19.80;;;10.63;;
55025;SDS011;40925;45.666;18.994;2023-03-31T22:04:40;26.45;;;12.27;;
55025;SDS011;40925;45.666;18.994;2023-03-31T22:07:06;25.67;;;11.65;;
55025;SDS011;40925;45.666;18.994;2023-03-31T22:09:32;20.00;;;9.60;;
55025;SDS011;40925;45.666;18.994;2023-03-31T22:11:58;44.45;;;19.00;;
55025;SDS011;40925;45.666;18.994;2023-03-31T22:14:27;34.47;;;17.15;;
55025;SDS011;40925;45.666;18.994;2023-03-31T22:16:59;26.80;;;13.98;;
55025;SDS011;40925;45.666;18.994;2023-03-31T22:19:31;23.73;;;12.00;;
55025;SDS011;40925;45.666;18.994;2023-03-31T22:22:04;12.85;;;6.88;;
55025;SDS011;40925;45.666;18.994;2023-03-31T22:24:45;16.20;;;8.68;;
55025;SDS011;40925;45.666;18.994;2023-03-31T22:27:23;18.20;;;8.77;;
55025;SDS011;40925;45.666;18.994;2023-03-31T22:30:18;21.33;;;10.13;;
55025;SDS011;40925;45.666;18.994;2023-03-31T22:36:18;25.90;;;11.30;;
55025;SDS011;40925;45.666;18.994;2023-03-31T23:56:01;10.10;;;4.57;;
55025;SDS011;40925;45.666;18.994;2023-03-31T23:58:38;9.18;;;4.60;;
